createdAt,value
2023-01-22T00:00:41.127Z,17.90
2023-01-22T00:06:04.617Z,20.00
2023-01-22T00:11:07.621Z,15.10
2023-01-22T00:16:14.706Z,14.90
2023-01-22T00:21:18.542Z,14.60
2023-01-22T00:26:21.455Z,12.30
2023-01-22T00:31:24.531Z,10.30
2023-01-22T00:36:28.012Z,13.10
2023-01-22T00:41:30.988Z,12.40
2023-01-22T00:46:34.012Z,14.00
2023-01-22T00:51:39.629Z,13.00
2023-01-22T00:56:42.766Z,13.80
2023-01-22T01:01:45.814Z,12.90
2023-01-22T01:06:48.878Z,13.30
2023-01-22T01:11:51.988Z,12.80
2023-01-22T01:16:56.758Z,12.70
2023-01-22T01:22:00.147Z,12.90
2023-01-22T01:27:03.664Z,17.30
2023-01-22T01:32:06.584Z,14.30
2023-01-22T01:37:09.586Z,14.30
2023-01-22T01:42:12.584Z,14.90
2023-01-22T01:47:32.536Z,14.70
2023-01-22T01:52:36.277Z,10.90
2023-01-22T01:57:41.370Z,16.40
2023-01-22T02:02:44.883Z,12.10
2023-01-22T02:07:48.513Z,14.80
2023-01-22T02:12:55.889Z,15.30
2023-01-22T02:17:58.819Z,14.90
2023-01-22T02:23:01.931Z,14.80
2023-01-22T02:28:05.142Z,14.60
2023-01-22T02:33:08.044Z,14.50
2023-01-22T02:38:11.047Z,18.90
2023-01-22T02:43:13.850Z,15.80
2023-01-22T02:48:16.753Z,14.60
2023-01-22T02:53:19.870Z,13.60
2023-01-22T02:58:22.774Z,16.90
2023-01-22T03:03:25.774Z,14.40
2023-01-22T03:08:28.779Z,9.00
2023-01-22T03:13:50.944Z,13.50
2023-01-22T03:19:12.588Z,13.90
2023-01-22T03:24:15.690Z,13.10
2023-01-22T03:29:18.801Z,11.80
2023-01-22T03:34:23.767Z,14.20
2023-01-22T03:39:27.675Z,16.20
2023-01-22T03:44:30.784Z,15.90
2023-01-22T03:49:33.898Z,12.80
2023-01-22T03:54:38.744Z,13.80
2023-01-22T03:59:41.645Z,15.50
2023-01-22T04:04:44.861Z,11.30
2023-01-22T04:09:48.091Z,14.50
2023-01-22T04:14:51.075Z,19.70
2023-01-22T04:19:54.188Z,14.60
2023-01-22T04:24:57.187Z,16.70
2023-01-22T04:30:00.205Z,15.80
2023-01-22T04:35:04.461Z,15.70
2023-01-22T04:40:08.930Z,15.50
2023-01-22T04:45:12.290Z,18.20
2023-01-22T04:50:20.955Z,15.00
2023-01-22T04:55:25.474Z,19.00
2023-01-22T05:00:30.220Z,11.10
2023-01-22T05:05:34.214Z,14.30
2023-01-22T05:10:37.147Z,14.30
2023-01-22T05:15:40.183Z,16.40
2023-01-22T05:20:43.181Z,15.50
2023-01-22T05:25:50.071Z,15.20
2023-01-22T05:30:53.073Z,15.50
2023-01-22T05:35:57.814Z,16.10
2023-01-22T05:41:00.818Z,15.00
2023-01-22T05:46:04.345Z,18.20
2023-01-22T05:51:08.617Z,18.00
2023-01-22T05:56:11.571Z,17.20
2023-01-22T06:01:14.695Z,18.80
2023-01-22T06:06:18.290Z,19.50
2023-01-22T06:11:21.630Z,19.60
2023-01-22T06:16:24.730Z,16.20
2023-01-22T06:21:27.738Z,16.80
2023-01-22T06:26:30.746Z,19.60
2023-01-22T06:31:33.921Z,20.70
2023-01-22T06:36:36.958Z,17.50
2023-01-22T06:41:39.864Z,16.60
2023-01-22T06:46:42.918Z,17.60
2023-01-22T06:51:45.996Z,16.00
2023-01-22T06:56:49.202Z,22.10
2023-01-22T07:01:52.807Z,16.40
2023-01-22T07:06:55.925Z,22.60
2023-01-22T07:12:01.188Z,19.70
2023-01-22T07:17:04.600Z,22.00
2023-01-22T07:22:07.506Z,16.90
2023-01-22T07:27:10.715Z,17.70
2023-01-22T07:32:13.621Z,17.00
2023-01-22T07:37:16.625Z,21.10
2023-01-22T07:42:19.732Z,17.90
2023-01-22T07:47:22.851Z,23.50
2023-01-22T07:52:25.967Z,25.00
2023-01-22T07:57:29.062Z,22.90
2023-01-22T08:02:32.266Z,16.70
2023-01-22T08:07:35.581Z,26.70
2023-01-22T08:12:41.532Z,19.20
2023-01-22T08:17:44.568Z,19.80
2023-01-22T08:22:47.673Z,25.20
2023-01-22T08:27:50.577Z,24.20
2023-01-22T08:32:53.791Z,26.10
2023-01-22T08:38:01.084Z,23.30
2023-01-22T08:43:04.099Z,22.90
2023-01-22T08:48:07.308Z,21.30
2023-01-22T08:53:10.535Z,23.70
2023-01-22T08:58:13.637Z,21.80
2023-01-22T09:03:17.253Z,21.70
2023-01-22T09:08:20.670Z,21.50
2023-01-22T09:13:23.784Z,23.10
2023-01-22T09:18:27.393Z,22.80
2023-01-22T09:23:30.711Z,30.90
2023-01-22T09:28:35.940Z,25.10
2023-01-22T09:33:39.691Z,19.60
2023-01-22T09:38:43.359Z,20.20
2023-01-22T09:43:56.190Z,22.80
2023-01-22T09:49:08.687Z,20.90
2023-01-22T09:54:15.625Z,20.70
2023-01-22T09:59:26.365Z,19.50
2023-01-22T10:04:35.563Z,20.20
2023-01-22T10:09:41.089Z,23.90
2023-01-22T10:14:44.598Z,21.60
2023-01-22T10:19:54.575Z,18.00
2023-01-22T10:24:58.616Z,19.50
2023-01-22T10:30:16.666Z,21.00
2023-01-22T10:35:21.111Z,16.20
2023-01-22T10:40:24.314Z,19.90
2023-01-22T10:45:27.416Z,19.90
2023-01-22T10:50:30.430Z,16.80
2023-01-22T10:55:39.696Z,17.40
2023-01-22T11:00:51.843Z,21.50
2023-01-22T11:06:00.200Z,16.10
2023-01-22T11:11:10.520Z,22.60
2023-01-22T11:16:16.820Z,22.00
2023-01-22T11:21:28.534Z,21.10
2023-01-22T11:26:35.308Z,18.60
2023-01-22T11:31:44.573Z,16.60
2023-01-22T11:37:06.521Z,17.00
2023-01-22T11:42:47.302Z,20.10
2023-01-22T11:47:56.546Z,15.10
2023-01-22T11:53:28.037Z,15.00
2023-01-22T11:58:45.568Z,20.70
2023-01-22T12:04:08.310Z,15.90
2023-01-22T12:09:27.840Z,17.70
2023-01-22T12:14:52.555Z,21.20
2023-01-22T12:20:32.450Z,16.10
2023-01-22T12:25:44.135Z,16.70
2023-01-22T12:30:58.079Z,17.40
2023-01-22T12:36:04.684Z,17.70
2023-01-22T12:41:30.118Z,14.80
2023-01-22T12:46:39.215Z,15.80
2023-01-22T12:51:48.115Z,14.80
2023-01-22T12:56:53.891Z,12.00
2023-01-22T13:02:02.734Z,16.20
2023-01-22T13:07:33.180Z,13.30
2023-01-22T13:18:28.217Z,14.90
2023-01-22T13:23:33.917Z,18.00
2023-01-22T13:28:40.075Z,15.40
2023-01-22T13:33:57.950Z,17.80
2023-01-22T13:39:01.385Z,14.60
2023-01-22T13:44:07.368Z,12.10
2023-01-22T13:49:14.742Z,13.80
2023-01-22T13:54:28.918Z,12.60
2023-01-22T13:59:35.396Z,15.80
2023-01-22T14:04:38.510Z,12.60
2023-01-22T14:09:41.523Z,15.20
2023-01-22T14:14:45.356Z,16.90
2023-01-22T14:19:48.554Z,16.10
2023-01-22T14:24:52.868Z,17.20
2023-01-22T14:29:56.515Z,13.90
2023-01-22T14:34:59.835Z,12.80
2023-01-22T14:40:02.949Z,14.20
2023-01-22T14:45:07.747Z,13.10
2023-01-22T14:50:11.658Z,12.30
2023-01-22T14:55:15.248Z,10.10
2023-01-22T15:00:20.132Z,8.40
2023-01-22T15:05:23.295Z,8.60
2023-01-22T15:10:26.412Z,9.60
2023-01-22T15:15:29.513Z,13.80
2023-01-22T15:20:32.726Z,14.70
2023-01-22T15:25:35.935Z,11.00
2023-01-22T15:30:38.997Z,14.80
2023-01-22T15:35:42.260Z,13.90
2023-01-22T15:40:45.365Z,10.80
2023-01-22T15:45:48.388Z,11.40
2023-01-22T15:50:51.495Z,11.70
2023-01-22T15:55:54.585Z,13.80
2023-01-22T16:00:57.833Z,12.00
2023-01-22T16:06:16.648Z,14.30
2023-01-22T16:11:20.736Z,12.70
2023-01-22T16:16:27.035Z,11.60
2023-01-22T16:21:30.423Z,11.80
2023-01-22T16:26:35.189Z,12.90
2023-01-22T16:31:38.394Z,10.80
2023-01-22T16:36:43.156Z,11.10
2023-01-22T16:41:49.135Z,11.90
2023-01-22T16:46:54.455Z,13.40
2023-01-22T16:52:05.097Z,9.00
2023-01-22T16:57:14.102Z,9.40
2023-01-22T17:02:19.465Z,12.50
2023-01-22T17:07:33.148Z,14.60
2023-01-22T17:12:36.926Z,12.40
2023-01-22T17:17:40.142Z,11.70
2023-01-22T17:22:43.243Z,13.30
2023-01-22T17:27:46.247Z,12.20
2023-01-22T17:32:49.769Z,9.70
2023-01-22T17:37:52.767Z,6.70
2023-01-22T17:42:55.888Z,9.70
2023-01-22T17:48:00.238Z,11.40
2023-01-22T17:53:03.178Z,11.70
2023-01-22T17:58:06.339Z,11.00
2023-01-22T18:03:09.672Z,10.70
2023-01-22T18:08:12.657Z,12.20
2023-01-22T18:13:15.813Z,11.10
2023-01-22T18:18:19.083Z,12.60
2023-01-22T18:23:22.088Z,13.60
2023-01-22T18:28:26.868Z,8.20
2023-01-22T18:33:30.760Z,10.70
2023-01-22T18:38:34.685Z,11.60
2023-01-22T18:43:38.803Z,13.00
2023-01-22T18:48:43.166Z,9.60
2023-01-22T18:53:46.690Z,12.20
2023-01-22T18:58:50.100Z,7.30
2023-01-22T19:03:59.226Z,9.30
2023-01-22T19:09:09.107Z,10.20
2023-01-22T19:14:16.009Z,8.10
2023-01-22T19:19:20.575Z,11.00
2023-01-22T19:24:26.948Z,11.80
2023-01-22T19:29:30.159Z,11.10
2023-01-22T19:34:33.255Z,11.40
2023-01-22T19:39:36.914Z,11.50
2023-01-22T19:44:42.175Z,12.30
2023-01-22T19:49:45.760Z,10.70
2023-01-22T19:54:50.832Z,12.70
2023-01-22T19:59:57.448Z,12.70
2023-01-22T20:05:00.635Z,10.20
2023-01-22T20:10:04.521Z,8.40
2023-01-22T20:15:08.292Z,11.90
2023-01-22T20:20:12.029Z,10.90
2023-01-22T20:25:16.015Z,8.90
2023-01-22T20:30:19.025Z,11.10
2023-01-22T20:35:22.130Z,11.40
2023-01-22T20:40:25.653Z,12.40
2023-01-22T20:45:28.698Z,11.50
2023-01-22T20:50:31.872Z,12.20
2023-01-22T20:55:35.088Z,11.10
2023-01-22T21:00:39.970Z,12.80
2023-01-22T21:05:43.201Z,8.70
2023-01-22T21:10:58.857Z,11.20
2023-01-22T21:16:10.883Z,10.70
2023-01-22T21:21:18.057Z,11.70
2023-01-22T21:26:24.376Z,14.20
2023-01-22T21:31:28.410Z,10.40
2023-01-22T21:36:36.200Z,9.80
2023-01-22T21:41:39.583Z,11.40
2023-01-22T21:46:44.736Z,9.60
2023-01-22T21:51:49.537Z,12.00
2023-01-22T21:56:53.246Z,11.40
2023-01-22T22:01:57.138Z,12.80
2023-01-22T22:07:00.183Z,13.10
2023-01-22T22:12:03.512Z,14.40
2023-01-22T22:17:07.869Z,12.70
2023-01-22T22:22:10.837Z,11.80
2023-01-22T22:27:13.845Z,16.50
2023-01-22T22:32:16.847Z,14.40
2023-01-22T22:37:19.757Z,10.60
2023-01-22T22:42:22.671Z,13.00
2023-01-22T22:47:25.592Z,13.80
2023-01-22T22:52:28.674Z,9.40
2023-01-22T22:57:31.545Z,10.40
2023-01-22T23:02:34.476Z,13.30
2023-01-22T23:07:37.495Z,16.40
2023-01-22T23:12:40.499Z,11.30
2023-01-22T23:17:43.397Z,12.70
2023-01-22T23:22:47.399Z,13.80
2023-01-22T23:27:50.640Z,10.40
2023-01-22T23:32:53.639Z,11.80
2023-01-22T23:37:56.645Z,13.30
2023-01-22T23:43:00.785Z,12.50
2023-01-22T23:48:04.366Z,12.30
2023-01-22T23:53:07.261Z,13.30
2023-01-22T23:58:10.622Z,11.30
